Time;durP1;ratioP1;P1;durP2;ratioP2;P2;SDS_P1;SDS_P2;PMS_P1;PMS_P2;Temp;Humidity;BMP_temperature;BMP_pressure;BME280_temperature;BME280_humidity;BME280_pressure;Samples;Min_cycle;Max_cycle;Signal;HPM_P1;HPM_P2
2022/08/23 00:01:56;;;;;;;7.30;4.18;;;;;;;;;;5021326;28;20302;-59
2022/08/23 00:04:23;;;;;;;5.07;3.28;;;;;;;;;;5020598;28;20229;-59
2022/08/23 00:06:52;;;;;;;6.25;3.75;;;;;;;;;;5024837;28;20263;-59
2022/08/23 00:09:18;;;;;;;5.45;3.83;;;;;;;;;;5033007;28;20298;-60
2022/08/23 00:11:46;;;;;;;8.25;3.85;;;;;;;;;;5014880;28;20245;-59
2022/08/23 00:14:15;;;;;;;5.70;4.20;;;;;;;;;;5017813;28;20237;-59
2022/08/23 00:16:42;;;;;;;5.50;3.40;;;;;;;;;;5031441;28;20229;-59
2022/08/23 00:19:09;;;;;;;3.58;3.28;;;;;;;;;;5025305;28;20766;-59
2022/08/23 00:21:37;;;;;;;4.82;4.13;;;;;;;;;;5028031;28;20236;-58
2022/08/23 00:24:06;;;;;;;3.20;2.90;;;;;;;;;;5032626;28;20233;-59
2022/08/23 00:26:48;;;;;;;4.60;2.97;;;;;;;;;;5018454;28;20232;-59
2022/08/23 00:29:14;;;;;;;5.55;3.60;;;;;;;;;;5016790;28;20375;-59
2022/08/23 00:31:40;;;;;;;3.03;2.33;;;;;;;;;;5016234;28;20261;-60
2022/08/23 00:34:07;;;;;;;3.78;3.30;;;;;;;;;;5016846;28;20236;-60
2022/08/23 00:36:33;;;;;;;4.20;3.10;;;;;;;;;;5024402;28;20549;-58
2022/08/23 00:39:00;;;;;;;4.72;3.50;;;;;;;;;;5022031;28;20239;-60
2022/08/23 00:41:27;;;;;;;5.40;3.45;;;;;;;;;;5036800;28;20285;-59
2022/08/23 00:49:37;;;;;;;3.60;3.30;;;;;;;;;;5008329;28;20255;-58
2022/08/23 00:52:06;;;;;;;4.28;3.10;;;;;;;;;;5024104;28;20236;-59
2022/08/23 00:54:33;;;;;;;4.18;3.47;;;;;;;;;;5028603;28;20223;-59
2022/08/23 00:57:04;;;;;;;6.20;3.45;;;;;;;;;;5022440;28;20228;-59
2022/08/23 00:59:30;;;;;;;5.35;3.20;;;;;;;;;;5015267;28;20235;-60
2022/08/23 01:01:57;;;;;;;6.07;3.58;;;;;;;;;;5023495;28;20240;-60
2022/08/23 01:04:24;;;;;;;3.38;3.00;;;;;;;;;;5020871;28;20721;-60
2022/08/23 01:06:54;;;;;;;6.88;3.83;;;;;;;;;;5013354;28;20228;-60
2022/08/23 01:09:21;;;;;;;4.95;3.10;;;;;;;;;;5025222;28;20243;-59
2022/08/23 01:11:53;;;;;;;3.72;3.17;;;;;;;;;;5017627;28;20239;-59
2022/08/23 01:14:24;;;;;;;3.65;3.22;;;;;;;;;;5022677;28;20239;-60
2022/08/23 01:16:53;;;;;;;3.83;3.30;;;;;;;;;;5026725;28;20224;-59
2022/08/23 01:19:23;;;;;;;5.10;3.70;;;;;;;;;;5020193;28;20252;-59
2022/08/23 01:21:52;;;;;;;4.55;3.00;;;;;;;;;;5010354;28;20719;-60
2022/08/23 01:24:20;;;;;;;4.20;3.38;;;;;;;;;;5019198;28;20241;-59
2022/08/23 01:26:46;;;;;;;3.92;3.40;;;;;;;;;;5019773;28;20726;-58
2022/08/23 01:29:15;;;;;;;3.38;3.03;;;;;;;;;;5027534;28;20248;-64
2022/08/23 01:31:42;;;;;;;5.57;2.90;;;;;;;;;;5028585;28;20237;-59
2022/08/23 01:34:09;;;;;;;5.32;3.45;;;;;;;;;;5025670;28;20612;-60
2022/08/23 01:36:36;;;;;;;3.50;3.20;;;;;;;;;;5016474;28;20240;-59
2022/08/23 01:39:03;;;;;;;4.50;3.67;;;;;;;;;;5023539;28;20331;-59
2022/08/23 01:41:31;;;;;;;3.00;2.65;;;;;;;;;;5015550;28;20359;-59
2022/08/23 01:43:57;;;;;;;4.45;3.33;;;;;;;;;;5020533;28;20278;-58
2022/08/23 01:46:24;;;;;;;3.70;3.40;;;;;;;;;;5019368;28;20245;-59
2022/08/23 01:48:54;;;;;;;6.80;2.80;;;;;;;;;;5024049;28;20249;-59
2022/08/23 01:51:21;;;;;;;5.00;3.65;;;;;;;;;;5012183;28;20332;-59
2022/08/23 01:53:47;;;;;;;3.72;3.28;;;;;;;;;;5017907;28;20237;-59
2022/08/23 01:56:14;;;;;;;3.13;2.88;;;;;;;;;;5012212;28;20248;-59
2022/08/23 01:58:42;;;;;;;5.88;3.10;;;;;;;;;;5022892;28;20228;-59
2022/08/23 02:01:08;;;;;;;4.35;3.03;;;;;;;;;;5017243;28;20247;-59
2022/08/23 02:03:36;;;;;;;4.00;3.08;;;;;;;;;;5021565;28;20228;-60
2022/08/23 02:06:02;;;;;;;3.13;2.83;;;;;;;;;;5018869;28;20241;-59
2022/08/23 02:11:14;;;;;;;3.25;2.95;;;;;;;;;;5019120;28;20343;-58
2022/08/23 02:13:42;;;;;;;3.30;2.75;;;;;;;;;;5028983;28;20240;-59
2022/08/23 02:16:09;;;;;;;2.75;2.30;;;;;;;;;;5020692;28;20233;-59
2022/08/23 02:18:35;;;;;;;3.35;3.05;;;;;;;;;;5027268;28;20223;-59
2022/08/23 02:21:02;;;;;;;2.75;2.53;;;;;;;;;;5018876;28;20244;-59
2022/08/23 02:23:28;;;;;;;4.45;3.00;;;;;;;;;;5020580;28;20224;-59
2022/08/23 02:25:55;;;;;;;2.95;2.67;;;;;;;;;;5020868;28;20667;-60
2022/08/23 02:28:22;;;;;;;3.58;2.80;;;;;;;;;;5016616;28;20237;-59
2022/08/23 02:30:50;;;;;;;3.00;2.80;;;;;;;;;;5015947;28;20233;-60
2022/08/23 02:33:16;;;;;;;5.20;3.03;;;;;;;;;;5015978;28;20267;-59
2022/08/23 02:35:43;;;;;;;3.53;3.22;;;;;;;;;;5016562;28;20233;-59
2022/08/23 02:38:11;;;;;;;3.80;2.97;;;;;;;;;;5020118;28;20262;-60
2022/08/23 02:40:38;;;;;;;4.45;2.75;;;;;;;;;;5030879;28;20316;-60
2022/08/23 02:43:05;;;;;;;4.53;2.92;;;;;;;;;;5017795;28;20584;-59
2022/08/23 02:45:32;;;;;;;5.78;2.97;;;;;;;;;;5019755;28;20232;-60
2022/08/23 02:48:00;;;;;;;3.47;3.13;;;;;;;;;;5022430;28;20232;-59
2022/08/23 02:50:27;;;;;;;3.65;2.70;;;;;;;;;;5019500;28;20781;-59
2022/08/23 02:52:53;;;;;;;4.78;2.90;;;;;;;;;;5012741;28;20233;-59
2022/08/23 02:55:20;;;;;;;3.38;2.63;;;;;;;;;;5017665;28;20279;-60
2022/08/23 02:57:46;;;;;;;6.57;2.90;;;;;;;;;;5015119;28;20224;-60
2022/08/23 03:00:14;;;;;;;2.92;2.35;;;;;;;;;;5020007;28;20228;-60
2022/08/23 03:02:40;;;;;;;3.83;3.28;;;;;;;;;;5008120;28;20738;-60
2022/08/23 03:05:09;;;;;;;2.97;2.67;;;;;;;;;;5017989;28;20235;-60
2022/08/23 03:07:35;;;;;;;9.65;3.65;;;;;;;;;;5025548;28;20228;-59
2022/08/23 03:10:02;;;;;;;4.47;2.80;;;;;;;;;;5025578;28;20264;-60
2022/08/23 03:12:28;;;;;;;6.22;3.05;;;;;;;;;;5025366;28;20360;-59
2022/08/23 03:14:55;;;;;;;3.97;2.67;;;;;;;;;;5022452;28;20232;-59
2022/08/23 03:17:21;;;;;;;5.18;3.22;;;;;;;;;;5016411;28;20233;-59
2022/08/23 03:19:48;;;;;;;5.10;2.97;;;;;;;;;;5020533;28;20237;-59
2022/08/23 03:22:15;;;;;;;2.80;2.50;;;;;;;;;;5019544;28;20729;-58
2022/08/23 03:24:42;;;;;;;3.13;2.92;;;;;;;;;;5037936;28;20220;-60
2022/08/23 03:27:09;;;;;;;3.78;3.38;;;;;;;;;;5028137;28;20251;-59
2022/08/23 03:29:36;;;;;;;4.13;3.33;;;;;;;;;;5018029;28;20236;-59
2022/08/23 03:32:03;;;;;;;4.25;3.10;;;;;;;;;;5027190;28;20595;-60
2022/08/23 03:34:29;;;;;;;4.20;2.92;;;;;;;;;;5023714;28;20354;-60
2022/08/23 03:36:56;;;;;;;4.75;3.08;;;;;;;;;;5023164;28;20243;-59
2022/08/23 03:39:23;;;;;;;4.85;3.72;;;;;;;;;;5028547;28;20240;-59
2022/08/23 03:41:50;;;;;;;4.03;3.13;;;;;;;;;;5026863;28;20245;-60
2022/08/23 03:44:16;;;;;;;4.70;3.17;;;;;;;;;;5029983;28;20232;-59
2022/08/23 03:46:42;;;;;;;5.07;4.05;;;;;;;;;;5017602;28;20239;-60
2022/08/23 03:49:09;;;;;;;5.07;3.92;;;;;;;;;;5015547;28;20241;-58
2022/08/23 03:51:35;;;;;;;3.92;3.50;;;;;;;;;;5020803;28;20241;-58
2022/08/23 03:54:02;;;;;;;5.43;3.80;;;;;;;;;;5031686;28;20238;-60
2022/08/23 03:56:30;;;;;;;6.20;3.78;;;;;;;;;;5033572;28;20240;-59
2022/08/23 03:58:57;;;;;;;5.13;3.45;;;;;;;;;;5026612;28;20233;-59
2022/08/23 04:01:24;;;;;;;5.05;3.38;;;;;;;;;;5019320;28;20328;-60
2022/08/23 04:03:50;;;;;;;4.32;3.03;;;;;;;;;;5016674;28;20241;-60
2022/08/23 04:06:17;;;;;;;3.42;3.22;;;;;;;;;;5023733;28;20459;-60
2022/08/23 04:08:44;;;;;;;3.97;3.08;;;;;;;;;;5027563;28;20240;-60
2022/08/23 04:11:11;;;;;;;4.43;3.28;;;;;;;;;;5024994;28;20239;-59
2022/08/23 04:13:39;;;;;;;3.47;3.08;;;;;;;;;;5021661;28;20283;-59
2022/08/23 04:16:05;;;;;;;5.32;3.97;;;;;;;;;;5015899;28;20244;-60
2022/08/23 04:18:32;;;;;;;7.43;4.65;;;;;;;;;;5022932;28;20228;-60
2022/08/23 04:21:00;;;;;;;5.10;3.17;;;;;;;;;;5038646;28;20898;-60
2022/08/23 04:23:27;;;;;;;3.97;3.53;;;;;;;;;;5018399;28;20237;-59
2022/08/23 04:25:53;;;;;;;4.03;3.30;;;;;;;;;;5022436;28;20236;-60
2022/08/23 04:28:19;;;;;;;5.25;4.05;;;;;;;;;;5025850;28;20321;-60
2022/08/23 04:30:49;;;;;;;3.90;3.60;;;;;;;;;;5020299;28;20753;-61
2022/08/23 04:33:16;;;;;;;5.82;4.18;;;;;;;;;;5027585;28;20773;-64
2022/08/23 04:35:42;;;;;;;4.28;3.50;;;;;;;;;;5021692;28;21077;-59
2022/08/23 04:38:08;;;;;;;6.07;3.88;;;;;;;;;;5021508;28;20237;-60
2022/08/23 04:43:27;;;;;;;6.88;3.90;;;;;;;;;;4996249;28;20231;-60
2022/08/23 04:45:55;;;;;;;4.82;3.75;;;;;;;;;;5026752;28;20242;-60
2022/08/23 04:48:22;;;;;;;7.35;4.05;;;;;;;;;;5029474;28;20236;-60
2022/08/23 04:50:48;;;;;;;3.97;3.63;;;;;;;;;;5034595;28;20232;-59
2022/08/23 04:53:14;;;;;;;4.00;3.33;;;;;;;;;;5029155;28;20228;-58
2022/08/23 04:55:41;;;;;;;5.55;3.90;;;;;;;;;;5013169;28;20228;-60
2022/08/23 04:58:07;;;;;;;5.28;4.18;;;;;;;;;;5012836;28;20324;-60
2022/08/23 05:00:34;;;;;;;3.88;3.38;;;;;;;;;;5022059;28;20255;-59
2022/08/23 05:03:01;;;;;;;4.47;4.07;;;;;;;;;;5019450;28;20703;-59
2022/08/23 05:05:28;;;;;;;7.63;5.32;;;;;;;;;;5034948;28;20225;-60
2022/08/23 05:07:54;;;;;;;3.65;3.35;;;;;;;;;;5030848;28;20324;-60
2022/08/23 05:10:21;;;;;;;6.53;4.10;;;;;;;;;;5027625;28;20236;-59
2022/08/23 05:12:47;;;;;;;5.47;4.40;;;;;;;;;;5017186;28;20228;-60
2022/08/23 05:15:14;;;;;;;6.63;3.72;;;;;;;;;;5016709;28;20344;-60
2022/08/23 05:17:40;;;;;;;4.15;3.35;;;;;;;;;;5030358;28;20645;-60
2022/08/23 05:20:10;;;;;;;6.95;4.03;;;;;;;;;;5021204;28;20323;-59
2022/08/23 05:22:37;;;;;;;5.22;3.72;;;;;;;;;;5026483;28;20240;-60
2022/08/23 05:25:03;;;;;;;6.60;4.85;;;;;;;;;;5028957;28;20235;-60
2022/08/23 05:27:30;;;;;;;9.52;4.30;;;;;;;;;;5029682;28;20233;-59
2022/08/23 05:29:56;;;;;;;4.32;3.92;;;;;;;;;;5015918;28;20257;-59
2022/08/23 05:32:23;;;;;;;4.43;3.92;;;;;;;;;;5023220;28;20304;-60
2022/08/23 05:34:49;;;;;;;6.38;4.28;;;;;;;;;;5021545;28;20233;-59
2022/08/23 05:37:17;;;;;;;5.70;3.83;;;;;;;;;;5021909;28;20729;-59
2022/08/23 05:39:43;;;;;;;7.38;4.75;;;;;;;;;;5013646;28;20448;-60
2022/08/23 05:42:11;;;;;;;4.65;4.20;;;;;;;;;;5019655;28;20769;-60
2022/08/23 05:44:38;;;;;;;5.65;4.40;;;;;;;;;;5018119;28;20702;-59
2022/08/23 05:47:05;;;;;;;5.57;4.30;;;;;;;;;;5020629;28;20243;-60
2022/08/23 05:49:32;;;;;;;6.15;4.50;;;;;;;;;;5027656;28;20289;-60
2022/08/23 05:51:58;;;;;;;7.03;4.22;;;;;;;;;;5022395;28;20290;-59
2022/08/23 05:54:26;;;;;;;5.05;3.88;;;;;;;;;;5023861;28;20229;-61
2022/08/23 05:56:52;;;;;;;7.97;4.45;;;;;;;;;;5024027;28;20237;-59
2022/08/23 05:59:19;;;;;;;5.15;3.85;;;;;;;;;;5011543;28;20236;-59
2022/08/23 06:01:45;;;;;;;5.35;3.88;;;;;;;;;;5012249;28;20271;-61
2022/08/23 06:04:12;;;;;;;7.95;4.28;;;;;;;;;;5019169;28;20342;-60
2022/08/23 06:06:39;;;;;;;6.15;3.90;;;;;;;;;;5014445;28;20296;-60
2022/08/23 06:09:06;;;;;;;6.43;3.95;;;;;;;;;;5019545;28;20237;-60
2022/08/23 06:11:35;;;;;;;6.90;4.82;;;;;;;;;;5018155;28;20610;-59
2022/08/23 06:14:02;;;;;;;5.68;4.03;;;;;;;;;;5019112;28;20316;-59
2022/08/23 06:16:30;;;;;;;7.32;4.30;;;;;;;;;;5011049;28;20311;-60
2022/08/23 06:18:57;;;;;;;6.80;4.18;;;;;;;;;;5007516;28;20631;-60
2022/08/23 06:21:25;;;;;;;5.45;3.70;;;;;;;;;;5015389;28;20233;-59
2022/08/23 06:23:52;;;;;;;4.50;3.75;;;;;;;;;;5014796;28;20224;-60
2022/08/23 06:26:19;;;;;;;5.00;4.13;;;;;;;;;;5014314;28;20236;-62
2022/08/23 06:28:47;;;;;;;8.63;4.65;;;;;;;;;;5012174;28;20233;-59
2022/08/23 06:31:14;;;;;;;5.20;3.78;;;;;;;;;;5015881;28;20236;-61
2022/08/23 06:33:41;;;;;;;6.03;4.63;;;;;;;;;;5016292;28;20237;-60
2022/08/23 06:36:08;;;;;;;5.15;3.70;;;;;;;;;;5011845;28;20228;-61
2022/08/23 06:38:35;;;;;;;4.25;3.85;;;;;;;;;;5010631;28;20828;-61
2022/08/23 06:41:02;;;;;;;3.92;3.53;;;;;;;;;;5016306;28;20228;-61
2022/08/23 06:43:29;;;;;;;9.15;3.65;;;;;;;;;;5022687;28;20223;-60
2022/08/23 06:46:05;;;;;;;4.45;4.03;;;;;;;;;;5026941;28;20228;-59
2022/08/23 06:48:31;;;;;;;5.38;3.58;;;;;;;;;;5015813;28;20234;-59
2022/08/23 06:50:58;;;;;;;8.82;3.55;;;;;;;;;;5014255;28;20243;-60
2022/08/23 06:53:24;;;;;;;4.93;3.72;;;;;;;;;;5015016;28;20240;-60
2022/08/23 06:55:50;;;;;;;5.97;3.65;;;;;;;;;;5011316;28;20232;-60
2022/08/23 06:58:17;;;;;;;5.45;3.72;;;;;;;;;;5019202;28;20244;-59
2022/08/23 07:00:43;;;;;;;5.90;4.32;;;;;;;;;;5013267;28;20241;-59
2022/08/23 07:03:11;;;;;;;4.32;3.65;;;;;;;;;;5021196;28;20236;-59
2022/08/23 07:05:37;;;;;;;4.35;3.95;;;;;;;;;;5010940;28;20240;-59
2022/08/23 07:08:04;;;;;;;3.95;3.65;;;;;;;;;;5013633;28;20238;-60
2022/08/23 07:10:30;;;;;;;9.70;4.50;;;;;;;;;;5017296;28;20240;-62
2022/08/23 07:12:56;;;;;;;5.28;3.70;;;;;;;;;;5021395;28;20737;-59
2022/08/23 07:15:23;;;;;;;5.97;3.47;;;;;;;;;;5012663;28;20232;-60
2022/08/23 07:17:49;;;;;;;4.47;3.78;;;;;;;;;;5013156;28;20229;-60
2022/08/23 07:20:17;;;;;;;5.85;3.90;;;;;;;;;;5012546;28;20237;-60
2022/08/23 07:22:43;;;;;;;5.00;3.40;;;;;;;;;;5009296;28;20233;-59
2022/08/23 07:25:10;;;;;;;7.05;4.07;;;;;;;;;;5008523;28;20283;-59
2022/08/23 07:27:36;;;;;;;10.82;3.72;;;;;;;;;;5018809;28;20259;-60
2022/08/23 07:30:04;;;;;;;5.85;3.30;;;;;;;;;;5025090;28;20719;-59
2022/08/23 07:32:30;;;;;;;5.45;3.25;;;;;;;;;;5020718;28;20233;-59
2022/08/23 07:34:57;;;;;;;5.68;3.20;;;;;;;;;;5021212;28;20247;-58
2022/08/23 07:37:26;;;;;;;5.93;3.83;;;;;;;;;;5007164;28;20243;-59
2022/08/23 07:39:53;;;;;;;6.15;3.92;;;;;;;;;;5012663;28;20643;-61
2022/08/23 07:42:19;;;;;;;4.18;3.47;;;;;;;;;;5015073;28;20228;-59
2022/08/23 07:44:46;;;;;;;4.35;3.42;;;;;;;;;;5014196;28;20231;-60
2022/08/23 07:47:12;;;;;;;4.95;3.13;;;;;;;;;;5019130;28;20244;-60
2022/08/23 07:49:38;;;;;;;4.38;2.95;;;;;;;;;;5012224;28;20286;-59
2022/08/23 07:52:05;;;;;;;4.97;3.20;;;;;;;;;;5013847;28;20238;-59
2022/08/23 07:54:32;;;;;;;7.35;3.50;;;;;;;;;;5018286;28;20236;-59
2022/08/23 07:56:59;;;;;;;4.75;3.42;;;;;;;;;;5015268;28;20231;-60
2022/08/23 07:59:25;;;;;;;4.72;3.25;;;;;;;;;;5012484;28;20232;-60
2022/08/23 08:01:52;;;;;;;4.50;2.95;;;;;;;;;;5009399;28;20319;-60
2022/08/23 08:04:18;;;;;;;5.75;3.03;;;;;;;;;;5014850;28;20310;-59
2022/08/23 08:06:47;;;;;;;5.55;3.00;;;;;;;;;;5010407;28;20747;-60
2022/08/23 08:09:14;;;;;;;5.32;4.07;;;;;;;;;;5012919;28;20229;-60
2022/08/23 08:11:43;;;;;;;3.83;3.53;;;;;;;;;;5009586;28;20321;-59
2022/08/23 08:14:09;;;;;;;3.70;3.33;;;;;;;;;;5013849;28;20241;-60
2022/08/23 08:16:37;;;;;;;5.57;3.03;;;;;;;;;;5020113;28;20267;-59
2022/08/23 08:19:05;;;;;;;3.53;2.72;;;;;;;;;;5014300;28;20241;-60
2022/08/23 08:21:32;;;;;;;4.50;2.90;;;;;;;;;;5008929;28;20241;-61
2022/08/23 08:23:58;;;;;;;4.28;2.85;;;;;;;;;;5010602;28;20233;-60
2022/08/23 08:26:25;;;;;;;7.00;3.00;;;;;;;;;;5006896;28;20496;-60
2022/08/23 08:28:54;;;;;;;3.72;2.85;;;;;;;;;;5015134;28;20690;-60
2022/08/23 08:31:21;;;;;;;3.90;2.60;;;;;;;;;;5026474;28;20782;-60
2022/08/23 08:33:47;;;;;;;4.78;2.70;;;;;;;;;;5038918;28;20611;-60
2022/08/23 08:36:28;;;;;;;5.05;3.13;;;;;;;;;;5015430;28;20247;-60
2022/08/23 08:38:54;;;;;;;5.97;3.00;;;;;;;;;;5020721;28;20345;-61
2022/08/23 08:41:25;;;;;;;4.50;2.97;;;;;;;;;;5020992;28;20233;-61
2022/08/23 08:43:56;;;;;;;3.72;2.83;;;;;;;;;;5019076;28;20651;-60
2022/08/23 08:46:24;;;;;;;4.32;3.20;;;;;;;;;;5027676;28;20310;-61
2022/08/23 08:48:52;;;;;;;3.75;2.25;;;;;;;;;;5025927;28;20228;-61
2022/08/23 08:51:33;;;;;;;5.18;2.40;;;;;;;;;;5012469;28;20448;-61
2022/08/23 08:54:00;;;;;;;3.03;2.47;;;;;;;;;;5021071;28;20247;-59
2022/08/23 08:56:29;;;;;;;3.40;3.10;;;;;;;;;;5015464;28;20228;-61
2022/08/23 08:58:58;;;;;;;5.95;2.47;;;;;;;;;;5007484;28;20248;-60
2022/08/23 09:01:25;;;;;;;4.57;2.65;;;;;;;;;;5019249;28;20240;-62
2022/08/23 09:03:52;;;;;;;3.60;2.90;;;;;;;;;;5015755;28;20237;-60
2022/08/23 09:06:22;;;;;;;4.88;2.67;;;;;;;;;;5014004;28;20244;-61
2022/08/23 09:08:57;;;;;;;3.00;2.70;;;;;;;;;;5032270;28;20242;-62
2022/08/23 09:11:30;;;;;;;4.80;3.28;;;;;;;;;;5021932;28;20232;-61
2022/08/23 09:14:03;;;;;;;5.68;2.90;;;;;;;;;;5016505;28;20259;-64
2022/08/23 09:16:33;;;;;;;2.80;2.40;;;;;;;;;;5022235;28;20691;-60
2022/08/23 09:19:01;;;;;;;5.38;2.78;;;;;;;;;;5024055;28;20309;-61
2022/08/23 09:21:27;;;;;;;4.13;2.20;;;;;;;;;;5009373;28;20229;-61
2022/08/23 09:23:54;;;;;;;5.32;3.17;;;;;;;;;;5020296;28;20224;-62
2022/08/23 09:26:29;;;;;;;2.67;2.47;;;;;;;;;;5036392;27;20576;-60
2022/08/23 09:28:59;;;;;;;4.70;2.60;;;;;;;;;;5024420;28;20241;-60
2022/08/23 09:31:42;;;;;;;6.03;2.90;;;;;;;;;;5018109;28;20298;-59
2022/08/23 09:34:08;;;;;;;5.10;2.33;;;;;;;;;;5017171;28;20231;-60
2022/08/23 09:36:36;;;;;;;4.25;2.55;;;;;;;;;;5017572;28;20244;-59
2022/08/23 09:39:04;;;;;;;4.03;2.80;;;;;;;;;;5019897;28;20239;-60
2022/08/23 09:41:35;;;;;;;3.55;2.38;;;;;;;;;;5017612;28;20745;-59
2022/08/23 09:44:02;;;;;;;3.25;2.25;;;;;;;;;;5023406;28;20233;-61
2022/08/23 09:46:29;;;;;;;2.70;2.08;;;;;;;;;;5016511;28;20232;-60
2022/08/23 09:48:57;;;;;;;5.15;2.78;;;;;;;;;;5011808;28;20655;-62
2022/08/23 09:51:25;;;;;;;2.95;2.65;;;;;;;;;;5013615;28;20255;-61
2022/08/23 09:54:01;;;;;;;3.33;2.28;;;;;;;;;;5016901;28;20535;-61
2022/08/23 09:56:28;;;;;;;3.38;2.00;;;;;;;;;;5016543;28;20328;-61
2022/08/23 09:58:56;;;;;;;3.75;2.78;;;;;;;;;;5013145;28;20236;-60
2022/08/23 10:01:23;;;;;;;4.95;2.33;;;;;;;;;;5011023;28;20239;-61
2022/08/23 10:04:07;;;;;;;5.43;3.20;;;;;;;;;;5015899;28;20240;-60
2022/08/23 10:06:34;;;;;;;3.63;2.20;;;;;;;;;;5009822;28;20703;-60
2022/08/23 10:09:04;;;;;;;5.05;2.53;;;;;;;;;;5019737;28;20232;-60
2022/08/23 10:11:33;;;;;;;2.55;2.03;;;;;;;;;;5018355;28;20259;-59
2022/08/23 10:14:00;;;;;;;3.70;1.95;;;;;;;;;;5011716;28;20232;-60
2022/08/23 10:16:33;;;;;;;4.80;2.67;;;;;;;;;;5016807;28;20259;-60
2022/08/23 10:19:02;;;;;;;6.45;2.83;;;;;;;;;;5014783;28;20750;-60
2022/08/23 10:21:32;;;;;;;4.25;2.95;;;;;;;;;;5019990;28;20225;-61
2022/08/23 10:24:16;;;;;;;3.40;2.88;;;;;;;;;;5017681;28;20232;-61
2022/08/23 10:26:46;;;;;;;4.22;2.92;;;;;;;;;;5013204;28;20241;-60
2022/08/23 10:32:04;;;;;;;2.95;2.65;;;;;;;;;;5021318;28;21021;-61
2022/08/23 10:34:39;;;;;;;3.60;2.80;;;;;;;;;;5021110;28;20272;-60
2022/08/23 10:37:13;;;;;;;7.20;2.85;;;;;;;;;;5013467;28;20228;-60
2022/08/23 10:39:43;;;;;;;5.47;3.15;;;;;;;;;;5004686;28;20311;-62
2022/08/23 10:42:13;;;;;;;4.97;2.67;;;;;;;;;;5000099;28;20784;-59
2022/08/23 10:44:43;;;;;;;4.32;3.08;;;;;;;;;;5000967;28;20245;-60
2022/08/23 10:47:13;;;;;;;5.32;3.40;;;;;;;;;;5002404;28;20238;-59
2022/08/23 10:49:40;;;;;;;7.72;2.50;;;;;;;;;;5003818;28;20268;-60
2022/08/23 10:52:09;;;;;;;3.17;2.40;;;;;;;;;;5002130;28;20240;-59
2022/08/23 10:54:45;;;;;;;4.07;2.17;;;;;;;;;;5003080;28;20230;-60
2022/08/23 10:57:13;;;;;;;2.60;2.17;;;;;;;;;;4992057;28;20240;-59
2022/08/23 10:59:42;;;;;;;4.38;2.95;;;;;;;;;;5003317;28;20244;-59
2022/08/23 11:02:14;;;;;;;4.70;2.65;;;;;;;;;;5003896;28;20245;-59
2022/08/23 11:04:44;;;;;;;4.38;2.50;;;;;;;;;;5000497;28;20238;-57
2022/08/23 11:07:18;;;;;;;2.90;2.00;;;;;;;;;;5001106;28;21331;-58
2022/08/23 11:09:50;;;;;;;3.50;2.65;;;;;;;;;;5006383;28;20328;-61
2022/08/23 11:12:24;;;;;;;5.47;2.15;;;;;;;;;;5001443;28;20597;-59
2022/08/23 11:15:10;;;;;;;4.65;2.28;;;;;;;;;;5004404;28;20257;-58
2022/08/23 11:17:41;;;;;;;3.97;2.60;;;;;;;;;;4999870;28;20217;-58
2022/08/23 11:20:08;;;;;;;6.22;2.33;;;;;;;;;;5001347;28;20716;-59
2022/08/23 11:22:54;;;;;;;3.80;2.15;;;;;;;;;;5001232;28;20233;-57
2022/08/23 11:25:36;;;;;;;2.03;1.80;;;;;;;;;;4994020;28;20688;-58
2022/08/23 11:28:17;;;;;;;1.90;1.80;;;;;;;;;;5001911;28;20229;-57
2022/08/23 11:30:48;;;;;;;2.33;1.80;;;;;;;;;;4986115;28;20249;-59
2022/08/23 11:33:20;;;;;;;4.38;2.42;;;;;;;;;;5001685;28;20225;-58
2022/08/23 11:35:48;;;;;;;2.85;2.22;;;;;;;;;;4998766;28;20236;-58
2022/08/23 11:38:15;;;;;;;2.75;2.55;;;;;;;;;;5004152;28;20251;-57
2022/08/23 11:40:55;;;;;;;4.65;2.08;;;;;;;;;;4995616;28;20248;-57
2022/08/23 11:43:24;;;;;;;3.95;2.13;;;;;;;;;;5002655;28;20729;-59
2022/08/23 11:45:52;;;;;;;2.55;1.77;;;;;;;;;;4994935;28;20251;-60
2022/08/23 11:48:21;;;;;;;4.68;1.83;;;;;;;;;;4999378;28;20237;-59
2022/08/23 11:51:15;;;;;;;2.35;2.15;;;;;;;;;;4997916;28;20663;-60
2022/08/23 11:53:47;;;;;;;3.75;2.22;;;;;;;;;;4999818;28;20703;-59
2022/08/23 11:56:25;;;;;;;3.17;1.80;;;;;;;;;;4998275;28;20229;-57
2022/08/23 11:59:04;;;;;;;2.00;1.80;;;;;;;;;;4998870;28;20632;-57
2022/08/23 12:01:32;;;;;;;3.05;2.28;;;;;;;;;;5003868;28;20642;-59
2022/08/23 12:04:00;;;;;;;2.42;2.22;;;;;;;;;;5001499;28;20240;-57
2022/08/23 12:06:38;;;;;;;3.33;2.10;;;;;;;;;;5001966;28;20413;-59
2022/08/23 12:09:09;;;;;;;1.98;1.80;;;;;;;;;;5002184;28;20240;-56
2022/08/23 12:11:54;;;;;;;2.80;2.40;;;;;;;;;;4999739;28;20593;-58
2022/08/23 12:14:35;;;;;;;2.58;2.28;;;;;;;;;;4988137;28;20688;-59
2022/08/23 12:17:04;;;;;;;3.83;1.80;;;;;;;;;;4994947;28;20271;-56
2022/08/23 12:19:33;;;;;;;4.70;2.60;;;;;;;;;;5004066;28;20240;-57
2022/08/23 12:22:06;;;;;;;3.97;2.05;;;;;;;;;;4998486;28;20611;-58
2022/08/23 12:24:39;;;;;;;1.95;1.80;;;;;;;;;;4997017;28;20233;-59
2022/08/23 12:27:11;;;;;;;2.42;2.22;;;;;;;;;;5000992;28;20245;-61
2022/08/23 12:29:42;;;;;;;3.13;1.90;;;;;;;;;;4999212;28;20788;-59
2022/08/23 12:32:13;;;;;;;5.18;2.10;;;;;;;;;;5004509;28;20238;-59
2022/08/23 12:34:44;;;;;;;3.78;2.20;;;;;;;;;;4991069;28;20245;-58
2022/08/23 12:37:14;;;;;;;3.78;2.13;;;;;;;;;;5002246;28;20713;-60
2022/08/23 12:39:48;;;;;;;1.75;1.65;;;;;;;;;;4994349;28;20233;-60
2022/08/23 12:42:15;;;;;;;3.13;1.90;;;;;;;;;;4996941;28;20244;-60
2022/08/23 12:44:42;;;;;;;3.28;1.80;;;;;;;;;;4998746;28;20238;-58
2022/08/23 12:47:11;;;;;;;2.83;1.90;;;;;;;;;;4986675;28;20244;-59
2022/08/23 12:49:38;;;;;;;2.83;1.38;;;;;;;;;;4996484;28;20237;-60
2022/08/23 12:52:06;;;;;;;4.75;1.65;;;;;;;;;;5000645;28;20240;-58
2022/08/23 12:54:35;;;;;;;3.55;2.03;;;;;;;;;;4998422;28;20225;-58
2022/08/23 12:57:08;;;;;;;5.28;1.83;;;;;;;;;;4997011;28;20240;-59
2022/08/23 12:59:37;;;;;;;3.35;1.83;;;;;;;;;;4994867;28;20241;-58
2022/08/23 13:02:05;;;;;;;2.58;2.15;;;;;;;;;;5000376;28;20229;-61
2022/08/23 13:04:34;;;;;;;2.58;1.75;;;;;;;;;;4996552;28;20229;-56
2022/08/23 13:07:04;;;;;;;1.88;1.70;;;;;;;;;;4995573;28;20239;-59
2022/08/23 13:09:32;;;;;;;2.75;1.65;;;;;;;;;;4996418;28;20229;-58
2022/08/23 13:11:59;;;;;;;2.60;1.98;;;;;;;;;;4996484;28;20315;-59
2022/08/23 13:14:26;;;;;;;2.08;1.80;;;;;;;;;;4996123;28;20882;-60
2022/08/23 13:16:53;;;;;;;6.05;2.28;;;;;;;;;;5000155;28;20317;-58
2022/08/23 13:19:24;;;;;;;1.77;1.67;;;;;;;;;;4995912;28;20236;-58
2022/08/23 13:22:05;;;;;;;2.58;1.73;;;;;;;;;;5000231;28;20232;-59
2022/08/23 13:24:37;;;;;;;2.22;1.65;;;;;;;;;;5001183;28;20679;-58
2022/08/23 13:27:11;;;;;;;2.97;2.08;;;;;;;;;;5000449;28;20229;-59
2022/08/23 13:29:48;;;;;;;2.30;1.77;;;;;;;;;;4990402;28;20237;-59
2022/08/23 13:32:24;;;;;;;1.67;1.58;;;;;;;;;;4996652;28;20235;-58
2022/08/23 13:34:52;;;;;;;1.83;1.60;;;;;;;;;;4999466;28;20237;-59
2022/08/23 13:37:20;;;;;;;2.38;1.70;;;;;;;;;;4999192;28;20237;-57
2022/08/23 13:39:49;;;;;;;3.17;1.83;;;;;;;;;;4999614;28;20300;-58
2022/08/23 13:42:24;;;;;;;4.05;1.55;;;;;;;;;;4998371;28;20221;-58
2022/08/23 13:44:51;;;;;;;1.40;1.30;;;;;;;;;;4999897;28;20331;-58
2022/08/23 13:47:23;;;;;;;4.68;1.88;;;;;;;;;;4995012;28;20629;-58
2022/08/23 13:49:50;;;;;;;2.47;1.60;;;;;;;;;;4999202;28;20241;-60
2022/08/23 13:52:16;;;;;;;2.47;1.90;;;;;;;;;;4997590;28;20244;-57
2022/08/23 13:54:42;;;;;;;3.05;1.90;;;;;;;;;;4995789;28;20232;-57
2022/08/23 13:57:13;;;;;;;2.47;1.63;;;;;;;;;;4998352;28;20263;-58
2022/08/23 13:59:41;;;;;;;2.88;2.13;;;;;;;;;;4995726;28;20237;-57
2022/08/23 14:02:10;;;;;;;1.58;1.48;;;;;;;;;;4996151;28;20233;-57
2022/08/23 14:04:36;;;;;;;2.05;1.70;;;;;;;;;;4996629;28;20233;-57
2022/08/23 14:07:02;;;;;;;3.05;1.75;;;;;;;;;;4997408;28;20260;-61
2022/08/23 14:09:29;;;;;;;3.95;2.05;;;;;;;;;;4991154;28;20250;-58
2022/08/23 14:11:57;;;;;;;2.08;1.30;;;;;;;;;;4997022;28;20719;-59
2022/08/23 14:14:25;;;;;;;1.90;1.73;;;;;;;;;;5002320;28;20233;-59
2022/08/23 14:16:53;;;;;;;3.88;2.25;;;;;;;;;;4998704;28;20257;-60
2022/08/23 14:19:19;;;;;;;3.33;1.88;;;;;;;;;;4996812;28;20230;-58
2022/08/23 14:21:46;;;;;;;3.35;1.80;;;;;;;;;;5002320;28;20229;-58
2022/08/23 14:24:12;;;;;;;5.03;1.75;;;;;;;;;;4998058;28;20236;-60
2022/08/23 14:26:39;;;;;;;2.47;1.40;;;;;;;;;;5001273;28;20253;-59
2022/08/23 14:29:05;;;;;;;2.35;1.70;;;;;;;;;;5001293;28;20766;-58
2022/08/23 14:31:33;;;;;;;1.80;1.70;;;;;;;;;;4999719;28;20263;-59
2022/08/23 14:33:59;;;;;;;3.60;1.60;;;;;;;;;;5001550;28;20734;-57
2022/08/23 14:36:25;;;;;;;1.92;1.75;;;;;;;;;;5000950;28;20233;-56
2022/08/23 14:38:52;;;;;;;3.67;1.70;;;;;;;;;;5000565;28;20644;-56
2022/08/23 14:41:20;;;;;;;2.08;1.50;;;;;;;;;;4997649;28;20240;-57
2022/08/23 14:43:46;;;;;;;2.75;1.80;;;;;;;;;;4998670;28;20728;-56
2022/08/23 14:46:12;;;;;;;3.20;1.70;;;;;;;;;;4996064;28;21357;-58
2022/08/23 14:48:40;;;;;;;2.33;1.50;;;;;;;;;;4997504;28;20606;-58
2022/08/23 14:51:11;;;;;;;1.77;1.45;;;;;;;;;;4997140;28;20247;-59
2022/08/23 14:53:38;;;;;;;2.95;1.65;;;;;;;;;;5000442;28;20715;-59
2022/08/23 14:56:04;;;;;;;3.55;1.73;;;;;;;;;;5000292;28;20229;-58
2022/08/23 14:58:31;;;;;;;2.45;1.95;;;;;;;;;;5003132;28;20649;-59
2022/08/23 15:00:58;;;;;;;4.70;1.77;;;;;;;;;;4999772;28;20245;-58
2022/08/23 15:03:25;;;;;;;2.67;1.50;;;;;;;;;;4996379;28;20458;-58
2022/08/23 15:05:53;;;;;;;4.95;2.17;;;;;;;;;;5001283;28;20244;-59